Silver Sun — 3FAU2 — position and weather

sailwx.info

Track history (hours):
 
Tides and Currents Weather Stations Pressure Air Temp Water Temp Dewpoint Dewpoint Depression Visibility Wind Speed Wind Dir Waves Ship Positions

Silver Sun

Last reported at 2018-Jun-23 21:31 UTC. Time now 2018-Jun-23 21:48 UTC.
Position N 43°39' E 008°29'.

Length 183 m; draft 7.5 m.

Type: Cargo ship. MMSI: 373207000.

Date/timePositionNaut miles runAvg speedWind from/ knotsBaromVisibWave heightAir tempDewpointWater temp
2018-Jun-23 21:31N 43°39' E 008°29'714.1
2018-Jun-23 21:01N 43°44' E 008°37'714.1
2018-Jun-23 20:31N 43°48' E 008°45'713.6
2018-Jun-23 20:00N 43°53' E 008°51'713.9
2018-Jun-23 19:30N 44°00' E 008°53'714.0
2018-Jun-23 19:00N 44°07' E 008°54'714.2
2018-Jun-23 18:30N 44°14' E 008°56'713.7
2018-Jun-23 18:01N 44°21' E 008°57'4 7.7
2018-Jun-23 17:31N 44°24' E 008°54'1 2.2
2018-Jun-23 16:58N 44°24' E 008°53'0 0.5
2018-Jun-23 16:31N 44°24' E 008°53'0 0.0
2018-Jun-23 15:58N 44°24' E 008°53'0 0.0
2018-Jun-23 15:28N 44°24' E 008°53'0 0.0
2018-Jun-23 14:58N 44°24' E 008°53'0 0.0
2018-Jun-23 14:28N 44°24' E 008°53'0 0.0
2018-Jun-23 13:58N 44°24' E 008°53'0 0.0
2018-Jun-23 13:28N 44°24' E 008°53'0 0.0
2018-Jun-23 12:58N 44°24' E 008°53'0 0.0
2018-Jun-23 12:28N 44°24' E 008°53'0 0.0
2018-Jun-23 12:00N 44°24' E 008°53'0 0.0
2018-Jun-23 11:30N 44°24' E 008°53'0 0.0
2018-Jun-23 11:01N 44°24' E 008°53'0 0.0
2018-Jun-23 10:30N 44°24' E 008°53'0 0.0
2018-Jun-23 10:00N 44°24' E 008°53'0 0.0
2018-Jun-23 09:31N 44°24' E 008°53'0 0.0
2018-Jun-23 09:01N 44°24' E 008°53'0 0.0
2018-Jun-23 08:28N 44°24' E 008°53'0 0.0
2018-Jun-23 08:01N 44°24' E 008°53'0 0.0
2018-Jun-23 07:27N 44°24' E 008°53'0 0.0
2018-Jun-23 06:58N 44°24' E 008°53'0 0.0
2018-Jun-23 06:30N 44°24' E 008°53'0 0.0
2018-Jun-23 06:00N 44°24' E 008°53'0 0.0
2018-Jun-23 05:28N 44°24' E 008°53'0 0.8
2018-Jun-23 05:00N 44°24' E 008°53'3 6.7
2018-Jun-23 04:30N 44°23' E 008°57'3 6.7
2018-Jun-23 04:00N 44°20' E 008°60'2 4.0
2018-Jun-23 03:30N 44°18' E 009°01'2 4.0
2018-Jun-23 03:00N 44°16' E 009°02'713.8
2018-Jun-23 02:30N 44°10' E 009°05'713.9
2018-Jun-23 02:01N 44°03' E 009°09'713.8
2018-Jun-23 01:31N 43°57' E 009°13'713.8
2018-Jun-23 01:00N 43°52' E 009°19'612.0
2018-Jun-23 00:30N 43°46' E 009°18'713.7
2018-Jun-23 00:00N 43°39' E 009°20'611.2
2018-Jun-22 23:30N 43°39' E 009°28'2 3.7
2018-Jun-22 23:00N 43°37' E 009°28'510.7
2018-Jun-22 22:30N 43°32' E 009°26'713.4
2018-Jun-22 22:00N 43°26' E 009°29'713.5
2018-Jun-22 21:30N 43°19' E 009°32'713.7
2018-Jun-22 21:00N 43°13' E 009°34'713.8
2018-Jun-22 20:30N 43°06' E 009°37'713.8
2018-Jun-22 20:00N 42°59' E 009°39'713.5
2018-Jun-22 19:30N 42°53' E 009°42'613.1
2018-Jun-22 19:00N 42°47' E 009°44'713.2
2018-Jun-22 18:29N 42°40' E 009°45'613.3
2018-Jun-22 18:00N 42°33' E 009°45'713.2
2018-Jun-22 17:30N 42°27' E 009°46'7912.8
2018-Jun-22 11:19N 41°08' E 009°52'413.1
2018-Jun-22 10:59N 41°03' E 009°53'613.1
2018-Jun-22 10:30N 40°57' E 009°53'713.5
2018-Jun-22 10:00N 40°50' E 009°53'1013.4
2018-Jun-22 09:14N 40°40' E 009°55'10611.7
2018-Jun-22 00:11N 39°02' E 010°46'18412.8
2018-Jun-21 09:46N 36°18' E 012°34'513.3
2018-Jun-21 09:22N 36°14' E 012°36'  
Track history (hours):
 
Tides and Currents Weather Stations Pressure Air Temp Water Temp Dewpoint Dewpoint Depression Visibility Wind Speed Wind Dir Waves Ship Positions

Silver Sun

Last reported at 2018-Jun-23 21:31 UTC. Time now 2018-Jun-23 21:48 UTC.
Position N 43°39' E 008°29'.

Length 183 m; draft 7.5 m.

Type: Cargo ship. MMSI: 373207000.

Date/timePositionNaut miles runAvg speedWind from/ knotsBaromVisibWave heightAir tempDewpointWater temp
2018-Jun-23 21:31N 43°39' E 008°29'714.1
2018-Jun-23 21:01N 43°44' E 008°37'714.1
2018-Jun-23 20:31N 43°48' E 008°45'713.6
2018-Jun-23 20:00N 43°53' E 008°51'713.9
2018-Jun-23 19:30N 44°00' E 008°53'714.0
2018-Jun-23 19:00N 44°07' E 008°54'714.2
2018-Jun-23 18:30N 44°14' E 008°56'713.7
2018-Jun-23 18:01N 44°21' E 008°57'4 7.7
2018-Jun-23 17:31N 44°24' E 008°54'1 2.2
2018-Jun-23 16:58N 44°24' E 008°53'0 0.5
2018-Jun-23 16:31N 44°24' E 008°53'0 0.0
2018-Jun-23 15:58N 44°24' E 008°53'0 0.0
2018-Jun-23 15:28N 44°24' E 008°53'0 0.0
2018-Jun-23 14:58N 44°24' E 008°53'0 0.0
2018-Jun-23 14:28N 44°24' E 008°53'0 0.0
2018-Jun-23 13:58N 44°24' E 008°53'0 0.0
2018-Jun-23 13:28N 44°24' E 008°53'0 0.0
2018-Jun-23 12:58N 44°24' E 008°53'0 0.0
2018-Jun-23 12:28N 44°24' E 008°53'0 0.0
2018-Jun-23 12:00N 44°24' E 008°53'0 0.0
2018-Jun-23 11:30N 44°24' E 008°53'0 0.0
2018-Jun-23 11:01N 44°24' E 008°53'0 0.0
2018-Jun-23 10:30N 44°24' E 008°53'0 0.0
2018-Jun-23 10:00N 44°24' E 008°53'0 0.0
2018-Jun-23 09:31N 44°24' E 008°53'0 0.0
2018-Jun-23 09:01N 44°24' E 008°53'0 0.0
2018-Jun-23 08:28N 44°24' E 008°53'0 0.0
2018-Jun-23 08:01N 44°24' E 008°53'0 0.0
2018-Jun-23 07:27N 44°24' E 008°53'0 0.0
2018-Jun-23 06:58N 44°24' E 008°53'0 0.0
2018-Jun-23 06:30N 44°24' E 008°53'0 0.0
2018-Jun-23 06:00N 44°24' E 008°53'0 0.0
2018-Jun-23 05:28N 44°24' E 008°53'0 0.8
2018-Jun-23 05:00N 44°24' E 008°53'3 6.7
2018-Jun-23 04:30N 44°23' E 008°57'3 6.7
2018-Jun-23 04:00N 44°20' E 008°60'2 4.0
2018-Jun-23 03:30N 44°18' E 009°01'2 4.0
2018-Jun-23 03:00N 44°16' E 009°02'713.8
2018-Jun-23 02:30N 44°10' E 009°05'713.9
2018-Jun-23 02:01N 44°03' E 009°09'713.8
2018-Jun-23 01:31N 43°57' E 009°13'713.8
2018-Jun-23 01:00N 43°52' E 009°19'612.0
2018-Jun-23 00:30N 43°46' E 009°18'713.7
2018-Jun-23 00:00N 43°39' E 009°20'611.2
2018-Jun-22 23:30N 43°39' E 009°28'2 3.7
2018-Jun-22 23:00N 43°37' E 009°28'510.7
2018-Jun-22 22:30N 43°32' E 009°26'713.4
2018-Jun-22 22:00N 43°26' E 009°29'713.5
2018-Jun-22 21:30N 43°19' E 009°32'713.7
2018-Jun-22 21:00N 43°13' E 009°34'713.8
2018-Jun-22 20:30N 43°06' E 009°37'713.8
2018-Jun-22 20:00N 42°59' E 009°39'713.5
2018-Jun-22 19:30N 42°53' E 009°42'613.1
2018-Jun-22 19:00N 42°47' E 009°44'713.2
2018-Jun-22 18:29N 42°40' E 009°45'613.3
2018-Jun-22 18:00N 42°33' E 009°45'713.2
2018-Jun-22 17:30N 42°27' E 009°46'7912.8
2018-Jun-22 11:19N 41°08' E 009°52'413.1
2018-Jun-22 10:59N 41°03' E 009°53'613.1
2018-Jun-22 10:30N 40°57' E 009°53'713.5
2018-Jun-22 10:00N 40°50' E 009°53'1013.4
2018-Jun-22 09:14N 40°40' E 009°55'10611.7
2018-Jun-22 00:11N 39°02' E 010°46'18412.8
2018-Jun-21 09:46N 36°18' E 012°34'513.3
2018-Jun-21 09:22N 36°14' E 012°36'  

Dump ship's entire track history